Time;durP1;ratioP1;P1;durP2;ratioP2;P2;SDS_P1;SDS_P2;PMS_P1;PMS_P2;Temp;Humidity;BMP_temperature;BMP_pressure;BME280_temperature;BME280_humidity;BME280_pressure;Samples;Min_cycle;Max_cycle;Signal;HPM_P1;HPM_P2
2023/07/20 00:02:20;;;;;;;;;;;;;;;22.21;33.47;99543.94;6154448;23;20218;-65
2023/07/20 00:04:46;;;;;;;;;;;;;;;22.21;33.62;99556.78;6155472;23;19939;-65
2023/07/20 00:07:11;;;;;;;;;;;;;;;22.19;34.07;99551.63;6155363;23;19940;-65
2023/07/20 00:09:36;;;;;;;;;;;;;;;22.22;33.81;99542.00;6155532;23;20315;-65
2023/07/20 00:12:02;;;;;;;;;;;;;;;22.12;34.04;99536.66;6155629;23;20499;-65
2023/07/20 00:14:27;;;;;;;;;;;;;;;22.09;34.67;99549.00;6154239;23;20278;-65
2023/07/20 00:16:55;;;;;;;;;;;;;;;22.05;34.16;99553.44;6156307;23;19931;-65
2023/07/20 00:19:27;;;;;;;;;;;;;;;22.02;34.37;99548.56;6155884;23;20326;-65
2023/07/20 00:21:54;;;;;;;;;;;;;;;22.00;34.53;99553.50;6155027;23;20266;-65
2023/07/20 00:24:20;;;;;;;;;;;;;;;21.95;34.82;99548.09;6155926;23;19966;-65
2023/07/20 00:26:45;;;;;;;;;;;;;;;21.85;34.84;99538.91;6128500;23;19909;-65
2023/07/20 00:29:10;;;;;;;;;;;;;;;21.84;34.76;99545.50;6156422;23;19908;-65
2023/07/20 00:31:37;;;;;;;;;;;;;;;21.81;34.47;99551.53;6154940;23;19908;-65
2023/07/20 00:34:02;;;;;;;;;;;;;;;21.76;34.53;99543.38;6154893;23;19917;-65
2023/07/20 00:36:28;;;;;;;;;;;;;;;21.65;34.67;99545.41;6156102;23;19908;-65
2023/07/20 00:38:53;;;;;;;;;;;;;;;21.63;34.91;99558.53;6154604;23;19908;-65
2023/07/20 00:41:18;;;;;;;;;;;;;;;21.64;35.16;99551.19;6155212;23;19919;-65
2023/07/20 00:43:44;;;;;;;;;;;;;;;21.59;34.50;99545.78;6154863;23;19999;-65
2023/07/20 00:46:09;;;;;;;;;;;;;;;21.61;35.30;99549.84;6154760;23;19909;-65
2023/07/20 00:48:35;;;;;;;;;;;;;;;21.58;34.79;99546.84;6155230;23;19935;-65
2023/07/20 00:51:01;;;;;;;;;;;;;;;21.52;35.06;99553.50;6154741;23;19999;-65
2023/07/20 00:53:26;;;;;;;;;;;;;;;21.51;35.09;99560.03;6154568;23;19996;-65
2023/07/20 00:55:52;;;;;;;;;;;;;;;21.50;34.81;99559.25;6155893;23;20285;-65
2023/07/20 00:58:17;;;;;;;;;;;;;;;21.46;34.67;99559.00;6154642;23;19915;-65
2023/07/20 01:00:43;;;;;;;;;;;;;;;21.43;35.18;99554.09;6155508;23;20334;-64
2023/07/20 01:03:08;;;;;;;;;;;;;;;21.39;35.03;99555.75;6152544;23;20377;-64
2023/07/20 01:05:38;;;;;;;;;;;;;;;21.35;34.83;99565.63;6155556;23;19922;-65
2023/07/20 01:08:15;;;;;;;;;;;;;;;21.32;35.03;99562.66;6155539;23;19909;-65
2023/07/20 01:10:50;;;;;;;;;;;;;;;21.30;34.84;99560.22;6127847;23;20341;-65
2023/07/20 01:13:17;;;;;;;;;;;;;;;21.29;34.78;99560.53;6154453;23;19916;-66
2023/07/20 01:15:48;;;;;;;;;;;;;;;21.23;34.60;99555.09;6154562;23;20028;-65
2023/07/20 01:18:14;;;;;;;;;;;;;;;21.24;35.03;99559.44;6156416;23;19909;-65
2023/07/20 01:20:39;;;;;;;;;;;;;;;21.28;35.08;99562.41;6128788;23;20471;-65
2023/07/20 01:23:07;;;;;;;;;;;;;;;21.24;34.86;99551.25;6127785;23;19971;-65
2023/07/20 01:25:33;;;;;;;;;;;;;;;21.21;35.03;99553.75;6155791;23;20007;-65
2023/07/20 01:28:01;;;;;;;;;;;;;;;21.22;34.92;99552.66;6154034;23;20318;-65
2023/07/20 01:30:32;;;;;;;;;;;;;;;21.23;34.80;99557.03;6155866;23;19908;-65
2023/07/20 01:32:58;;;;;;;;;;;;;;;21.19;34.92;99555.94;6154388;23;20281;-65
2023/07/20 01:35:26;;;;;;;;;;;;;;;21.29;35.30;99555.88;6154504;23;19916;-65
2023/07/20 01:37:53;;;;;;;;;;;;;;;21.35;35.34;99554.72;6129649;23;19991;-65
2023/07/20 01:40:19;;;;;;;;;;;;;;;21.31;34.90;99547.38;6153703;23;19959;-65
2023/07/20 01:42:46;;;;;;;;;;;;;;;21.24;35.01;99547.72;6155943;23;19912;-65
2023/07/20 01:45:11;;;;;;;;;;;;;;;21.19;35.20;99562.25;6152774;23;19909;-63
2023/07/20 01:47:36;;;;;;;;;;;;;;;21.12;35.27;99560.91;6153963;23;19944;-65
2023/07/20 01:50:02;;;;;;;;;;;;;;;21.10;35.06;99565.84;6155422;23;19913;-65
2023/07/20 01:52:27;;;;;;;;;;;;;;;21.10;35.29;99565.84;6153689;23;19916;-65
2023/07/20 01:54:52;;;;;;;;;;;;;;;21.04;35.40;99557.72;6153832;23;19971;-65
2023/07/20 01:57:18;;;;;;;;;;;;;;;21.00;35.87;99555.84;6154700;23;19979;-65
2023/07/20 01:59:46;;;;;;;;;;;;;;;20.95;35.31;99555.88;6153808;23;19915;-64
2023/07/20 02:02:11;;;;;;;;;;;;;;;21.01;35.43;99562.94;6155111;23;19988;-64
2023/07/20 02:04:37;;;;;;;;;;;;;;;20.99;35.79;99560.50;6153243;23;19955;-64
2023/07/20 02:07:02;;;;;;;;;;;;;;;20.94;35.97;99557.78;6154795;23;19944;-64
2023/07/20 02:09:28;;;;;;;;;;;;;;;20.98;35.94;99560.78;6154997;23;19940;-64
2023/07/20 02:11:53;;;;;;;;;;;;;;;21.14;36.40;99554.09;6153845;23;19915;-64
2023/07/20 02:14:18;;;;;;;;;;;;;;;21.07;35.26;99551.69;6154621;23;19909;-64
2023/07/20 02:16:43;;;;;;;;;;;;;;;20.99;35.14;99554.22;6153373;23;20313;-64
2023/07/20 02:19:09;;;;;;;;;;;;;;;20.87;35.56;99551.84;6155853;23;19968;-64
2023/07/20 02:21:34;;;;;;;;;;;;;;;20.86;35.15;99559.22;6154269;23;19915;-65
2023/07/20 02:23:59;;;;;;;;;;;;;;;20.81;35.32;99553.78;6126722;23;19917;-64
2023/07/20 02:26:25;;;;;;;;;;;;;;;20.83;35.51;99556.25;6153590;23;19962;-64
2023/07/20 02:28:50;;;;;;;;;;;;;;;20.85;35.89;99552.13;6153991;23;19913;-64
2023/07/20 02:31:16;;;;;;;;;;;;;;;20.85;35.62;99551.31;6155249;23;19909;-64
2023/07/20 02:33:41;;;;;;;;;;;;;;;20.77;35.67;99551.94;6103861;23;19913;-64
2023/07/20 02:36:06;;;;;;;;;;;;;;;20.73;35.60;99556.28;6153448;23;19909;-65
2023/07/20 02:38:32;;;;;;;;;;;;;;;20.67;35.97;99555.53;6154467;23;19935;-65
2023/07/20 02:40:57;;;;;;;;;;;;;;;20.68;35.81;99557.97;6153085;23;19963;-65
2023/07/20 02:43:22;;;;;;;;;;;;;;;20.72;35.68;99560.94;6153732;23;19920;-65
2023/07/20 02:45:49;;;;;;;;;;;;;;;20.72;35.80;99557.41;6154695;23;20242;-65
2023/07/20 02:48:15;;;;;;;;;;;;;;;20.72;35.36;99557.41;6125857;23;19909;-64
2023/07/20 02:50:40;;;;;;;;;;;;;;;20.63;35.39;99555.25;6154762;23;19912;-65
2023/07/20 02:53:05;;;;;;;;;;;;;;;20.61;34.67;99554.75;6153080;23;20277;-64
2023/07/20 02:55:31;;;;;;;;;;;;;;;20.63;34.51;99551.72;6129787;23;19916;-64
2023/07/20 02:57:56;;;;;;;;;;;;;;;20.72;35.18;99554.69;6155385;23;20011;-64
2023/07/20 03:00:23;;;;;;;;;;;;;;;20.74;34.53;99553.28;6155815;23;19916;-64
2023/07/20 03:02:48;;;;;;;;;;;;;;;20.81;34.82;99552.97;6156764;23;19916;-64
2023/07/20 03:05:14;;;;;;;;;;;;;;;20.86;35.29;99555.69;6154813;23;20003;-64
2023/07/20 03:07:39;;;;;;;;;;;;;;;20.87;35.47;99552.66;6157285;23;19909;-65
2023/07/20 03:10:07;;;;;;;;;;;;;;;20.91;35.49;99557.53;6155949;23;20282;-64
2023/07/20 03:12:34;;;;;;;;;;;;;;;20.95;35.49;99561.31;6155471;23;19908;-64
2023/07/20 03:14:59;;;;;;;;;;;;;;;21.00;35.41;99559.38;6156460;23;19908;-65
2023/07/20 03:17:24;;;;;;;;;;;;;;;21.01;35.45;99563.75;6155305;23;20483;-64
2023/07/20 03:19:50;;;;;;;;;;;;;;;20.98;35.53;99556.13;6155698;23;19913;-64
2023/07/20 03:22:15;;;;;;;;;;;;;;;20.97;35.32;99561.84;6156904;23;19915;-64
2023/07/20 03:24:40;;;;;;;;;;;;;;;20.93;35.50;99564.38;6154613;23;20006;-65
2023/07/20 03:27:06;;;;;;;;;;;;;;;20.96;35.49;99561.03;6156900;23;19912;-65
2023/07/20 03:29:32;;;;;;;;;;;;;;;20.93;35.27;99561.63;6155441;23;19940;-65
2023/07/20 03:31:58;;;;;;;;;;;;;;;20.90;35.26;99566.84;6156367;23;19991;-65
2023/07/20 03:34:24;;;;;;;;;;;;;;;20.87;35.19;99562.75;6156462;23;19991;-65
2023/07/20 03:36:49;;;;;;;;;;;;;;;20.90;36.39;99550.47;6155339;23;19995;-65
2023/07/20 03:39:14;;;;;;;;;;;;;;;20.87;35.62;99558.09;6156658;23;19909;-65
2023/07/20 03:41:40;;;;;;;;;;;;;;;20.93;35.69;99553.44;6154917;23;19959;-65
2023/07/20 03:44:05;;;;;;;;;;;;;;;20.93;35.55;99555.34;6154298;23;20140;-64
2023/07/20 03:46:30;;;;;;;;;;;;;;;20.96;35.72;99558.31;6155725;23;19968;-65
2023/07/20 03:48:56;;;;;;;;;;;;;;;20.95;35.77;99562.16;6154619;23;19959;-65
2023/07/20 03:51:21;;;;;;;;;;;;;;;20.95;36.01;99564.91;6130027;23;19909;-65
2023/07/20 03:53:46;;;;;;;;;;;;;;;20.96;35.91;99561.03;6155685;23;19909;-65
2023/07/20 03:56:12;;;;;;;;;;;;;;;20.91;35.72;99560.28;6155507;23;19909;-65
2023/07/20 03:58:37;;;;;;;;;;;;;;;20.91;35.62;99561.06;6156534;23;19909;-65
2023/07/20 04:01:03;;;;;;;;;;;;;;;20.91;35.67;99566.53;6154415;23;19931;-65
2023/07/20 04:03:28;;;;;;;;;;;;;;;20.93;35.75;99563.53;6155331;23;20338;-65
2023/07/20 04:05:57;;;;;;;;;;;;;;;20.93;35.49;99558.06;6155597;23;20306;-65
2023/07/20 04:08:26;;;;;;;;;;;;;;;20.96;35.60;99563.78;6154956;23;19936;-65
2023/07/20 04:10:52;;;;;;;;;;;;;;;20.96;35.50;99558.31;6156186;23;19916;-65
2023/07/20 04:13:17;;;;;;;;;;;;;;;20.98;35.71;99566.22;6153610;23;19908;-65
2023/07/20 04:15:43;;;;;;;;;;;;;;;21.01;35.70;99565.66;6156277;23;19979;-65
2023/07/20 04:18:08;;;;;;;;;;;;;;;21.08;35.86;99561.50;6155607;23;19909;-64
2023/07/20 04:20:33;;;;;;;;;;;;;;;21.21;35.62;99565.50;6155406;23;19916;-64
2023/07/20 04:22:59;;;;;;;;;;;;;;;21.25;35.53;99558.34;6155074;23;19935;-64
2023/07/20 04:25:24;;;;;;;;;;;;;;;21.29;35.58;99553.13;6154827;23;19944;-64
2023/07/20 04:27:51;;;;;;;;;;;;;;;21.28;35.26;99556.97;6156100;23;19991;-64
2023/07/20 04:30:19;;;;;;;;;;;;;;;21.34;35.32;99560.44;6130441;23;19915;-64
2023/07/20 04:32:46;;;;;;;;;;;;;;;21.41;35.47;99563.66;6154341;23;20311;-64
2023/07/20 04:35:16;;;;;;;;;;;;;;;21.41;35.41;99566.41;6155950;23;19908;-64
2023/07/20 04:37:45;;;;;;;;;;;;;;;21.40;35.25;99554.66;6154742;23;19956;-64
2023/07/20 04:40:11;;;;;;;;;;;;;;;21.51;35.08;99560.88;6156626;23;19947;-64
2023/07/20 04:42:36;;;;;;;;;;;;;;;21.55;35.02;99567.38;6155406;23;20325;-64
2023/07/20 04:45:01;;;;;;;;;;;;;;;21.59;34.97;99567.63;6154138;23;19947;-64
2023/07/20 04:47:27;;;;;;;;;;;;;;;21.65;35.26;99561.81;6155300;23;19963;-65
2023/07/20 04:49:52;;;;;;;;;;;;;;;21.69;35.38;99562.03;6128595;23;19909;-64
2023/07/20 04:52:17;;;;;;;;;;;;;;;21.71;35.02;99561.75;6129340;23;20250;-64
2023/07/20 04:54:43;;;;;;;;;;;;;;;21.70;34.75;99563.69;6154235;23;20000;-64
2023/07/20 04:57:11;;;;;;;;;;;;;;;21.68;34.90;99563.16;6154944;23;20289;-64
2023/07/20 04:59:36;;;;;;;;;;;;;;;21.71;34.73;99562.59;6156018;23;19908;-64
2023/07/20 05:02:02;;;;;;;;;;;;;;;21.73;34.62;99557.66;6153716;23;19950;-64
2023/07/20 05:04:27;;;;;;;;;;;;;;;21.76;34.43;99556.25;6154084;23;20003;-64
2023/07/20 05:06:52;;;;;;;;;;;;;;;21.80;33.91;99563.59;6155633;23;19908;-64
2023/07/20 05:09:17;;;;;;;;;;;;;;;21.83;34.42;99567.66;6154603;23;20226;-64
2023/07/20 05:11:44;;;;;;;;;;;;;;;21.83;34.07;99571.19;6155738;23;20366;-64
2023/07/20 05:14:10;;;;;;;;;;;;;;;21.87;34.02;99565.94;6153124;23;19916;-64
2023/07/20 05:16:35;;;;;;;;;;;;;;;21.95;34.02;99562.59;6155057;23;19963;-64
2023/07/20 05:19:00;;;;;;;;;;;;;;;21.97;33.82;99574.06;6155699;23;19950;-64
2023/07/20 05:21:26;;;;;;;;;;;;;;;22.04;33.29;99560.00;6154266;23;19908;-64
2023/07/20 05:23:51;;;;;;;;;;;;;;;22.08;34.01;99568.44;6154748;23;19975;-64
2023/07/20 05:26:16;;;;;;;;;;;;;;;22.10;33.50;99566.22;6153425;23;19908;-64
2023/07/20 05:28:41;;;;;;;;;;;;;;;22.17;33.31;99562.03;6155719;23;19916;-64
2023/07/20 05:31:07;;;;;;;;;;;;;;;22.25;33.86;99568.78;6129451;23;19915;-64
2023/07/20 05:33:32;;;;;;;;;;;;;;;22.37;33.72;99560.97;6153581;23;19959;-64
2023/07/20 05:35:57;;;;;;;;;;;;;;;22.44;32.84;99562.56;6154530;23;19956;-64
2023/07/20 05:38:23;;;;;;;;;;;;;;;22.54;33.64;99565.94;6128269;23;19908;-64
2023/07/20 05:40:48;;;;;;;;;;;;;;;22.58;33.02;99566.16;6155400;23;19916;-65
2023/07/20 05:43:14;;;;;;;;;;;;;;;22.66;33.25;99567.41;6154829;23;19930;-64
2023/07/20 05:45:42;;;;;;;;;;;;;;;22.65;32.31;99565.81;6153861;23;19908;-64
2023/07/20 05:48:09;;;;;;;;;;;;;;;22.77;32.44;99572.47;6128447;23;19959;-64
2023/07/20 05:50:35;;;;;;;;;;;;;;;22.88;32.32;99573.13;6154143;23;19909;-64
2023/07/20 05:53:00;;;;;;;;;;;;;;;23.00;32.02;99570.72;6153733;23;19916;-64
2023/07/20 05:55:25;;;;;;;;;;;;;;;23.28;32.50;99570.84;6155705;23;19944;-64
2023/07/20 05:57:51;;;;;;;;;;;;;;;23.49;32.78;99567.75;6152921;23;19999;-64
2023/07/20 06:00:19;;;;;;;;;;;;;;;23.62;32.01;99555.97;6155213;23;19909;-64
2023/07/20 06:02:44;;;;;;;;;;;;;;;23.74;31.62;99559.06;6153857;23;19917;-64
2023/07/20 06:05:09;;;;;;;;;;;;;;;23.91;32.01;99560.41;6154033;23;19919;-65
2023/07/20 06:07:36;;;;;;;;;;;;;;;24.08;32.08;99568.81;6154485;23;19938;-65
2023/07/20 06:10:02;;;;;;;;;;;;;;;24.22;31.87;99559.75;6153139;23;19948;-65
2023/07/20 06:12:27;;;;;;;;;;;;;;;24.35;32.21;99561.69;6154884;23;19991;-65
2023/07/20 06:14:53;;;;;;;;;;;;;;;24.28;29.74;99559.34;6153158;23;19948;-65
2023/07/20 06:17:18;;;;;;;;;;;;;;;24.41;31.25;99560.44;6152873;23;19909;-64
2023/07/20 06:19:43;;;;;;;;;;;;;;;24.56;31.52;99561.28;6155145;23;19908;-65
2023/07/20 06:22:08;;;;;;;;;;;;;;;24.57;30.36;99562.88;6153986;23;19980;-65
2023/07/20 06:24:38;;;;;;;;;;;;;;;24.62;29.73;99562.78;6154916;23;20326;-65
2023/07/20 06:27:05;;;;;;;;;;;;;;;24.78;30.88;99564.03;6155123;23;19991;-65
2023/07/20 06:29:31;;;;;;;;;;;;;;;24.77;29.85;99565.16;6153562;23;20352;-65
2023/07/20 06:31:56;;;;;;;;;;;;;;;24.69;29.58;99560.41;6157222;23;19936;-65
2023/07/20 06:34:21;;;;;;;;;;;;;;;24.68;29.37;99561.53;6155331;23;19910;-64
2023/07/20 06:36:46;;;;;;;;;;;;;;;24.67;30.39;99568.94;6131573;23;19909;-65
2023/07/20 06:39:12;;;;;;;;;;;;;;;24.52;29.42;99566.56;6156434;23;20344;-65
2023/07/20 06:41:37;;;;;;;;;;;;;;;24.33;29.84;99566.66;6155711;23;19908;-65
2023/07/20 06:44:03;;;;;;;;;;;;;;;24.46;30.70;99565.00;6105927;23;19916;-64
2023/07/20 06:46:28;;;;;;;;;;;;;;;24.24;28.63;99569.34;6154942;23;19913;-64
2023/07/20 06:48:53;;;;;;;;;;;;;;;24.28;29.82;99570.34;6130220;23;19912;-64
2023/07/20 06:51:19;;;;;;;;;;;;;;;24.28;29.77;99569.53;6157139;23;19912;-64
2023/07/20 06:53:44;;;;;;;;;;;;;;;24.31;30.16;99572.47;6155266;23;20318;-65
2023/07/20 06:56:11;;;;;;;;;;;;;;;24.46;30.60;99573.25;6156996;23;19916;-65
2023/07/20 06:58:36;;;;;;;;;;;;;;;24.57;30.07;99569.19;6155556;23;19915;-64
2023/07/20 07:01:05;;;;;;;;;;;;;;;24.60;30.25;99567.75;6156396;23;19991;-66
2023/07/20 07:03:31;;;;;;;;;;;;;;;24.67;30.03;99562.66;6155938;23;19921;-64
2023/07/20 07:05:56;;;;;;;;;;;;;;;24.79;30.06;99553.88;6129792;23;20252;-64
2023/07/20 07:08:21;;;;;;;;;;;;;;;24.80;29.46;99555.50;6156961;23;20290;-64
2023/07/20 07:10:47;;;;;;;;;;;;;;;24.85;29.85;99558.94;6154521;23;19954;-64
2023/07/20 07:13:12;;;;;;;;;;;;;;;24.96;29.68;99553.97;6156305;23;19968;-64
2023/07/20 07:15:37;;;;;;;;;;;;;;;25.00;29.67;99548.69;6156825;23;19936;-67
2023/07/20 07:18:03;;;;;;;;;;;;;;;25.04;29.77;99545.00;6155514;23;19909;-66
2023/07/20 07:20:28;;;;;;;;;;;;;;;25.11;29.61;99547.28;6156436;23;19916;-66
2023/07/20 07:22:57;;;;;;;;;;;;;;;25.12;29.21;99546.19;6154943;23;19909;-66
2023/07/20 07:25:22;;;;;;;;;;;;;;;25.18;29.23;99552.34;6156659;23;19955;-66
2023/07/20 07:27:53;;;;;;;;;;;;;;;25.25;30.36;99552.75;6155675;23;19908;-67
2023/07/20 07:30:19;;;;;;;;;;;;;;;25.26;29.54;99549.72;6155691;23;19915;-66
2023/07/20 07:32:45;;;;;;;;;;;;;;;25.25;29.42;99548.06;6155943;23;19909;-66
2023/07/20 07:35:11;;;;;;;;;;;;;;;25.25;28.90;99553.56;6154886;23;19917;-67
2023/07/20 07:37:36;;;;;;;;;;;;;;;25.21;29.53;99549.81;6156311;23;19908;-66
2023/07/20 07:40:02;;;;;;;;;;;;;;;25.31;29.77;99546.00;6156556;23;19908;-66
2023/07/20 07:42:29;;;;;;;;;;;;;;;25.38;29.42;99554.59;6153550;23;19908;-67
2023/07/20 07:44:54;;;;;;;;;;;;;;;25.45;29.70;99549.47;6155788;23;20374;-67
2023/07/20 07:47:19;;;;;;;;;;;;;;;25.47;28.94;99558.22;6153708;23;20005;-66
2023/07/20 07:49:44;;;;;;;;;;;;;;;25.48;28.78;99556.28;6156330;23;20257;-67
2023/07/20 07:52:10;;;;;;;;;;;;;;;25.56;29.31;99558.28;6155943;23;19917;-67
2023/07/20 07:54:35;;;;;;;;;;;;;;;25.41;27.29;99567.72;6154736;23;19959;-67
2023/07/20 07:57:00;;;;;;;;;;;;;;;25.33;29.24;99556.69;6156644;23;19916;-67
2023/07/20 07:59:26;;;;;;;;;;;;;;;25.44;29.34;99561.59;6155284;23;19913;-67
2023/07/20 08:01:51;;;;;;;;;;;;;;;25.61;29.29;99569.13;6130027;23;19924;-67
2023/07/20 08:04:16;;;;;;;;;;;;;;;25.76;29.01;99561.56;6155237;23;19920;-67
2023/07/20 08:06:42;;;;;;;;;;;;;;;25.69;27.21;99562.84;6155045;23;19979;-67
2023/07/20 08:09:07;;;;;;;;;;;;;;;25.83;28.96;99564.69;6155963;23;19931;-67
2023/07/20 08:11:33;;;;;;;;;;;;;;;26.05;28.12;99569.31;6129102;23;19936;-67
2023/07/20 08:13:59;;;;;;;;;;;;;;;26.24;27.91;99558.88;6154118;23;19908;-67
2023/07/20 08:16:24;;;;;;;;;;;;;;;26.39;28.86;99554.84;6155973;23;19908;-67
2023/07/20 08:18:51;;;;;;;;;;;;;;;26.48;29.10;99556.78;6154529;23;19913;-67
2023/07/20 08:21:17;;;;;;;;;;;;;;;26.55;28.34;99554.34;6155449;23;20286;-67
2023/07/20 08:23:42;;;;;;;;;;;;;;;26.56;27.93;99562.31;6153591;23;19913;-67
2023/07/20 08:26:07;;;;;;;;;;;;;;;26.60;27.81;99559.75;6129491;23;19909;-67
2023/07/20 08:28:34;;;;;;;;;;;;;;;26.69;28.17;99554.22;6155834;23;19909;-67
2023/07/20 08:30:59;;;;;;;;;;;;;;;26.81;27.83;99557.16;6154258;23;20307;-67
2023/07/20 08:33:24;;;;;;;;;;;;;;;26.89;27.49;99558.28;6155207;23;19915;-67
2023/07/20 08:35:49;;;;;;;;;;;;;;;26.81;26.52;99562.66;6154684;23;19912;-67
2023/07/20 08:38:15;;;;;;;;;;;;;;;26.79;27.50;99556.66;6154077;23;20098;-67
2023/07/20 08:40:42;;;;;;;;;;;;;;;26.80;26.63;99556.34;6155791;23;20289;-67
2023/07/20 08:43:08;;;;;;;;;;;;;;;26.75;25.94;99555.69;6153761;23;19935;-67
2023/07/20 08:45:34;;;;;;;;;;;;;;;26.54;26.18;99561.81;6128631;23;19916;-67
2023/07/20 08:48:00;;;;;;;;;;;;;;;26.59;26.04;99563.59;6154981;23;19916;-67
2023/07/20 08:50:26;;;;;;;;;;;;;;;26.54;25.54;99558.22;6154639;23;19940;-67
2023/07/20 08:52:52;;;;;;;;;;;;;;;26.60;26.99;99568.00;6129664;23;20015;-67
2023/07/20 08:55:18;;;;;;;;;;;;;;;26.45;26.01;99559.03;6153604;23;20311;-67
2023/07/20 08:57:45;;;;;;;;;;;;;;;26.33;25.39;99558.06;6155728;23;19909;-67
2023/07/20 09:00:13;;;;;;;;;;;;;;;26.22;25.42;99566.59;6155613;23;19912;-67
2023/07/20 09:02:40;;;;;;;;;;;;;;;26.19;26.85;99558.19;6154422;23;19991;-67
2023/07/20 09:05:06;;;;;;;;;;;;;;;26.02;25.48;99579.03;6155105;23;20230;-67
2023/07/20 09:07:31;;;;;;;;;;;;;;;26.08;26.71;99564.00;6127903;23;19920;-67
2023/07/20 09:09:57;;;;;;;;;;;;;;;26.25;27.13;99571.47;6155539;23;19908;-67
2023/07/20 09:12:22;;;;;;;;;;;;;;;26.42;27.61;99565.19;6155542;23;19978;-67
2023/07/20 09:14:48;;;;;;;;;;;;;;;26.25;25.62;99570.69;6153763;23;19909;-67
2023/07/20 09:17:14;;;;;;;;;;;;;;;26.16;25.25;99567.09;6154973;23;19955;-67
2023/07/20 09:19:45;;;;;;;;;;;;;;;26.22;25.52;99569.34;6154112;23;19908;-67
2023/07/20 09:22:10;;;;;;;;;;;;;;;26.24;25.47;99571.78;6155580;23;20162;-67
2023/07/20 09:24:36;;;;;;;;;;;;;;;26.17;26.13;99569.53;6154817;23;19924;-67
2023/07/20 09:27:03;;;;;;;;;;;;;;;26.14;24.08;99570.16;6153490;23;19999;-67
2023/07/20 09:29:30;;;;;;;;;;;;;;;26.16;26.28;99572.59;6155867;23;19975;-67
2023/07/20 09:32:02;;;;;;;;;;;;;;;25.97;25.89;99572.88;6153883;23;19909;-67
2023/07/20 09:34:34;;;;;;;;;;;;;;;25.89;24.14;99579.91;6154929;23;19909;-67
2023/07/20 09:37:00;;;;;;;;;;;;;;;25.97;25.40;99578.38;6154543;23;19909;-67
2023/07/20 09:39:25;;;;;;;;;;;;;;;26.02;26.16;99575.44;6154334;23;19963;-67
2023/07/20 09:41:51;;;;;;;;;;;;;;;26.16;25.39;99567.09;6155355;23;20215;-67
2023/07/20 09:44:17;;;;;;;;;;;;;;;26.20;25.58;99571.63;6153176;23;19944;-67
2023/07/20 09:46:49;;;;;;;;;;;;;;;26.35;26.54;99575.84;6154470;23;19908;-67
2023/07/20 09:49:14;;;;;;;;;;;;;;;26.43;25.90;99577.03;6154388;23;19909;-67
2023/07/20 09:51:40;;;;;;;;;;;;;;;26.69;26.29;99566.06;6154274;23;20330;-67
2023/07/20 09:54:06;;;;;;;;;;;;;;;26.88;25.63;99570.44;6155070;23;19908;-67
2023/07/20 09:56:32;;;;;;;;;;;;;;;27.01;26.39;99578.53;6153731;23;20326;-67
2023/07/20 09:58:58;;;;;;;;;;;;;;;27.23;25.82;99560.19;6154314;23;19915;-67
2023/07/20 10:01:24;;;;;;;;;;;;;;;27.43;25.43;99569.72;6128149;23;19944;-67
2023/07/20 10:03:52;;;;;;;;;;;;;;;27.55;25.28;99566.28;6126790;23;19920;-67
2023/07/20 10:06:20;;;;;;;;;;;;;;;27.69;24.78;99568.81;6154809;23;19915;-67
2023/07/20 10:08:47;;;;;;;;;;;;;;;27.82;25.88;99562.25;6126561;23;19915;-67
2023/07/20 10:11:15;;;;;;;;;;;;;;;27.84;24.40;99560.00;6154816;23;19909;-67
2023/07/20 10:13:40;;;;;;;;;;;;;;;28.08;25.01;99555.84;6128268;23;20312;-67
2023/07/20 10:16:08;;;;;;;;;;;;;;;28.35;24.31;99560.88;6153583;23;19912;-67
2023/07/20 10:19:07;;;;;;;;;;;;;;;28.24;22.45;99558.84;6128911;23;20380;-67
2023/07/20 10:21:40;;;;;;;;;;;;;;;28.38;23.61;99565.72;6089545;23;19916;-68
2023/07/20 10:24:05;;;;;;;;;;;;;;;28.51;24.57;99555.56;6154563;23;20004;-68
2023/07/20 10:26:31;;;;;;;;;;;;;;;28.29;22.70;99545.66;6153261;23;20001;-68
2023/07/20 10:28:57;;;;;;;;;;;;;;;28.46;23.59;99547.47;6154815;23;19909;-68
2023/07/20 10:31:23;;;;;;;;;;;;;;;28.44;23.52;99547.00;6154325;23;20373;-67
2023/07/20 10:33:50;;;;;;;;;;;;;;;28.62;24.06;99546.88;6152240;23;19908;-67
2023/07/20 10:36:16;;;;;;;;;;;;;;;28.72;22.73;99540.97;6155308;23;19951;-67
2023/07/20 10:38:42;;;;;;;;;;;;;;;28.75;23.84;99554.91;6153995;23;19909;-67
2023/07/20 10:41:16;;;;;;;;;;;;;;;29.03;23.47;99536.94;6154500;23;20234;-68
2023/07/20 10:43:45;;;;;;;;;;;;;;;29.36;23.23;99539.69;6154525;23;19912;-67
2023/07/20 10:46:11;;;;;;;;;;;;;;;29.59;23.47;99544.81;6153471;23;20298;-67
2023/07/20 10:48:56;;;;;;;;;;;;;;;29.86;21.89;99540.59;6153946;23;19909;-68
2023/07/20 10:51:21;;;;;;;;;;;;;;;29.94;23.25;99534.16;6152569;23;19912;-68
2023/07/20 10:53:50;;;;;;;;;;;;;;;29.95;21.22;99534.94;6154347;23;20318;-68
2023/07/20 10:56:19;;;;;;;;;;;;;;;30.18;21.20;99530.53;6154756;23;19909;-68
2023/07/20 10:58:45;;;;;;;;;;;;;;;30.48;21.00;99525.53;6127496;23;20373;-67
2023/07/20 11:01:13;;;;;;;;;;;;;;;30.71;20.80;99524.19;6154491;23;19947;-67
2023/07/20 11:03:40;;;;;;;;;;;;;;;30.87;22.67;99520.31;6152716;23;19916;-68
2023/07/20 11:06:23;;;;;;;;;;;;;;;31.05;21.40;99520.84;6154950;23;19932;-68
2023/07/20 11:08:54;;;;;;;;;;;;;;;31.05;19.37;99533.88;6154825;23;19919;-68
2023/07/20 11:11:26;;;;;;;;;;;;;;;30.93;20.27;99523.66;6153146;23;19912;-68
2023/07/20 11:14:04;;;;;;;;;;;;;;;30.68;20.29;99517.38;6128705;23;19920;-68
2023/07/20 11:16:39;;;;;;;;;;;;;;;30.92;21.95;99521.22;6154721;23;19928;-68
2023/07/20 11:19:04;;;;;;;;;;;;;;;31.00;21.69;99523.84;6156848;23;19964;-68
2023/07/20 11:21:37;;;;;;;;;;;;;;;31.19;21.59;99520.41;6156034;23;19908;-68
2023/07/20 11:24:04;;;;;;;;;;;;;;;31.29;20.26;99512.72;6156016;23;19948;-68
2023/07/20 11:26:29;;;;;;;;;;;;;;;31.47;19.68;99521.50;6157332;23;20464;-68
2023/07/20 11:28:54;;;;;;;;;;;;;;;31.57;20.88;99515.44;6155555;23;19916;-68
2023/07/20 11:31:20;;;;;;;;;;;;;;;31.86;20.28;99516.94;6156612;23;19943;-68
2023/07/20 11:33:45;;;;;;;;;;;;;;;32.04;18.75;99520.16;6154380;23;19916;-67
2023/07/20 11:36:11;;;;;;;;;;;;;;;32.48;19.84;99511.56;6156092;23;19913;-67
2023/07/20 11:38:36;;;;;;;;;;;;;;;32.78;19.84;99517.41;6156383;23;19944;-67
2023/07/20 11:41:02;;;;;;;;;;;;;;;32.93;19.12;99512.91;6155223;23;19916;-67
2023/07/20 11:43:28;;;;;;;;;;;;;;;33.23;18.87;99506.75;6128932;23;19916;-67
2023/07/20 11:45:53;;;;;;;;;;;;;;;33.33;19.18;99516.44;6155694;23;19913;-67
2023/07/20 11:48:18;;;;;;;;;;;;;;;33.35;18.77;99498.19;6155340;23;19959;-67
2023/07/20 11:50:44;;;;;;;;;;;;;;;33.45;18.96;99498.72;6157093;23;19908;-67
2023/07/20 11:53:09;;;;;;;;;;;;;;;33.61;17.29;99504.97;6154246;23;19912;-68
2023/07/20 11:55:35;;;;;;;;;;;;;;;34.11;18.84;99502.19;6156467;23;19909;-68
2023/07/20 11:58:03;;;;;;;;;;;;;;;34.20;18.94;99496.34;6156287;23;19912;-67
2023/07/20 12:00:29;;;;;;;;;;;;;;;34.21;17.24;99503.53;6155467;23;19909;-67
2023/07/20 12:02:54;;;;;;;;;;;;;;;33.71;17.07;99501.59;6155931;23;19924;-70
2023/07/20 12:05:22;;;;;;;;;;;;;;;33.50;18.21;99501.22;6154413;23;20300;-67
2023/07/20 12:07:47;;;;;;;;;;;;;;;33.16;18.46;99506.59;6156486;23;19969;-67
2023/07/20 12:10:13;;;;;;;;;;;;;;;33.40;18.18;99504.63;6156490;23;19909;-67
2023/07/20 12:12:42;;;;;;;;;;;;;;;33.33;18.34;99499.75;6129372;23;20003;-67
2023/07/20 12:15:14;;;;;;;;;;;;;;;33.53;17.65;99500.47;6154912;23;19909;-67
2023/07/20 12:17:43;;;;;;;;;;;;;;;33.56;17.62;99503.31;6154643;23;19912;-67
2023/07/20 12:20:08;;;;;;;;;;;;;;;33.59;17.02;99506.53;6155698;23;20023;-68
2023/07/20 12:22:38;;;;;;;;;;;;;;;33.32;17.07;99500.91;6156477;23;20330;-68
2023/07/20 12:25:05;;;;;;;;;;;;;;;33.59;17.68;99490.63;6153643;23;19999;-68
2023/07/20 12:27:31;;;;;;;;;;;;;;;33.99;18.09;99496.81;6155981;23;20258;-68
2023/07/20 12:29:57;;;;;;;;;;;;;;;34.21;16.32;99490.38;6154645;23;19996;-68
2023/07/20 12:32:22;;;;;;;;;;;;;;;34.81;18.60;99484.00;6156172;23;19987;-68
2023/07/20 12:34:48;;;;;;;;;;;;;;;35.20;16.85;99475.22;6154911;23;19940;-68
2023/07/20 12:37:13;;;;;;;;;;;;;;;35.61;18.33;99486.34;6153758;23;19909;-68
2023/07/20 12:39:39;;;;;;;;;;;;;;;36.35;17.70;99492.00;6156003;23;19909;-68
2023/07/20 12:42:04;;;;;;;;;;;;;;;36.58;16.83;99488.91;6154155;23;19909;-66
2023/07/20 12:44:30;;;;;;;;;;;;;;;37.22;15.98;99481.91;6154672;23;19909;-66